ADDS METAR Data INFO
IDs: Format: Raw Decoded Include TAF

Data at: 0320 UTC 23 Jun 2017

Region: TOP
KATL 230252Z 15006KT 10SM BKN120 BKN200 23/22 A3005 RMK AO2 SLP166 T02330222 53009

KBOS 230254Z 18006KT 10SM FEW120 23/16 A2990 RMK AO2 SLP123 T02280156 51005 $

KBWI 230254Z 20003KT 10SM FEW160 BKN250 26/23 A2995 RMK AO2 SLP139 T02560228 50004

KCLE 230251Z 20009KT 10SM FEW048 FEW150 BKN250 27/21 A2988 RMK AO2 SLP111 T02670206 53006

KCLT 230252Z 16006KT 10SM BKN150 OVC200 24/21 A3008 RMK AO2 RAB28E40 SLP178 P0000 60000 T02440211 58001

KCVG 230252Z 16011KT 10SM -RA FEW015 BKN037 OVC080 21/21 A2989 RMK AO2 SLP111 P0007 60017 T02110206 56012

KDCA 230252Z 17006KT 10SM BKN250 27/25 A2996 RMK AO2 SLP145 T02720250 50006

KDEN 230253Z 09004KT 10SM FEW120 SCT150 BKN200 21/12 A3000 RMK AO2 SLP068 T02060117 53004

KDFW 230253Z 16005KT 10SM BKN300 28/23 A2965 RMK AO2 SLP030 T02830228 53008

KDTW 230253Z 17009KT 10SM SCT060 BKN110 23/22 A2981 RMK AO2 LTG DSNT NW SLP090 OCNL LTGIC DSNT NW CB DSNT NW MOV NE 60044 T02330217 55008 $

KEWR 230251Z 19007KT 10SM FEW130 OVC230 27/21 A2990 RMK AO2 SLP125 T02670206 50002

KFLL 230253Z 10012KT 10SM FEW027 28/23 A3006 RMK AO2 SLP180 T02780233 52012

KIAD 230252Z 20005KT 10SM FEW150 BKN250 24/21 A2996 RMK AO2 SLP141 T02440211 50005

KIAH 230253Z 18009KT 10SM FEW024 FEW080 SCT200 BKN250 29/24 A2971 RMK AO2 SLP060 T02890239 53014

KJFK 230251Z 19006KT 10SM OVC250 22/21 A2992 RMK AO2 SLP131 T02220211 58001

KLAS 230256Z 25013G20KT 10SM FEW120 FEW250 42/M09 A2969 RMK AO2 SLP017 T04171094 53003

KLAX 230253Z 26009KT 10SM BKN010 18/16 A2983 RMK AO2 SLP101 T01830161 53006

KLGA 230251Z 21008KT 10SM OVC250 27/21 A2990 RMK AO2 SLP124 T02670211 58001

KMCO 230253Z 12006KT 10SM CLR 25/24 A3010 RMK AO2 SLP190 T02500239 51023

KMDW 230253Z 20014KT 10SM BKN024 OVC040 26/22 A2974 RMK AO2 SLP058 T02610217 53008

KMEM 230254Z 14013KT 10SM SCT080 BKN110 BKN250 26/24 A2976 RMK AO2 SLP073 60000 T02610244 53004

KMIA 230253Z 08012KT 10SM FEW025 SCT042 SCT055 SCT250 29/23 A3007 RMK AO2 SLP182 T02890228 52013

KMSP 230253Z 30005KT 10SM SCT130 19/16 A2975 RMK AO2 SLP070 T01890156 51005

KORD 230313Z 21015G24KT 10SM BKN024 BKN034 OVC045 26/21 A2972 RMK AO2 LTG DSNT W AND NW T02610206

KPDX 230253Z 33011G20KT 10SM CLR 25/06 A3011 RMK AO2 SLP197 T02500061 55006

KPHL 230254Z 20005KT 10SM OVC250 27/22 A2993 RMK AO2 SLP136 T02720217 51002 $

KPHX 230251Z 26008KT 10SM FEW150 FEW250 42/08 A2963 RMK AO2 SLP009 T04170078 55001

KPIT 230251Z 20008KT 10SM BKN140 OVC250 25/21 A2995 RMK AO2 SLP139 T02500206 55001

KSAN 230251Z 22006KT 10SM OVC012 19/16 A2986 RMK AO2 SLP111 T01940161 53006

KSEA 230253Z 34009KT 10SM CLR 21/06 A3023 RMK AO2 SLP240 T02110056 56006

KSFO 230256Z 29017KT 10SM FEW004 18/13 A2976 RMK AO2 SLP078 T01780128 53012

KSLC 230254Z 36006KT 10SM CLR 27/03 A3001 RMK AO2 SLP105 T02670028 52003

KSTL 230251Z 16014G19KT 10SM FEW030 SCT060 BKN250 28/22 A2975 RMK AO2 SLP060 T02780222 53002

KTPA 230253Z 00000KT 10SM FEW022 BKN055 BKN070 25/24 A3008 RMK AO2 RAE29 SLP184 OCNL LTGIC DSNT W CB DSNT W P0003 60065 T02500239 51023


Page loaded:  03:20 UTC  |   08:20 PM Pacific  |   09:20 PM Mountain  |   10:20 PM Central  |   11:20 PM Eastern

 

ADVISORIES

FORECASTS

FORECASTS

OBSERVATIONS

USER TOOLS

ABOUT US